Flight Track Log - Related Links

Times and Time Zones

All times are in EDT time to prevent confusion due to time zone crossing. See the N700LP flight status page for this flight to view local times or setup timezone preferences in your user account.

Time Position Orientation Groundspeed Altitude Reporting Facility
EDT Latitude Longitude Course Direction KTS MPH feet Rate Location/Type
Thu 11:44:47 PM 29.6372 -95.2864 291° West 194 223 700  Level Houston Center
Thu 11:45:29 PM 29.6078 -95.3069 211° Southwest 194 223 2,100 2,051 Climbing Houston Center
Thu 11:46:06 PM 29.5814 -95.3267 213° Southwest 203 234 3,400 2,656 Climbing Houston Center
Thu 11:46:30 PM 29.5564 -95.3442 211° Southwest 225 259 4,800 3,290 Climbing Houston Center
Thu 11:47:08 PM 29.5275 -95.3644 211° Southwest 225 259 6,800 3,541 Climbing Houston Center
Thu 11:47:31 PM 29.5033 -95.3819 212° Southwest 220 253 8,400 3,738 Climbing Houston Center
Thu 11:48:09 PM 29.4831 -95.4167 236° Southwest 214 246 10,600 2,909 Climbing Houston Center
Thu 11:49:10 PM 29.5186 -95.4753 305° West 239 275 13,200 2,459 Climbing Houston Center
Thu 11:50:00 PM 29.8676 -95.8863 291° West  Level FlightAware Approximate
Thu 11:50:11 PM 29.5544 -95.5422 302° West 243 280 15,600  Level Houston Center
Thu 11:51:12 PM 29.5989 -95.6186 304° West 286 329 16,000 197 Climbing Houston Center
Thu 11:52:13 PM 29.6497 -95.7044 304° West 321 369 16,000  Level Houston Center
Thu 11:53:15 PM 29.7003 -95.7942 303° West 333 383 16,000 295 Level Houston Center
Thu 11:54:15 PM 29.7608 -95.9008 303° West 332 382 16,600 1,438 Climbing Houston Center
Thu 11:55:16 PM 29.8069 -95.9817 303° West 308 354 18,900 1,967 Climbing Houston Center
Thu 11:56:17 PM 29.8467 -96.0522 303° West 301 346 20,600 1,659 Climbing Houston Center
Thu 11:57:19 PM 29.8944 -96.1344 304° West 308 354 22,300 1,171 Climbing Houston Center
Thu 11:58:20 PM 29.9389 -96.2442 295° West 329 379 23,000 344 Climbing Houston Center
Thu 11:59:21 PM 29.9444 -96.3533 273° West 345 397 23,000 836 Level Houston Center
Fri 12:00:22 AM 29.9544 -96.4597 276° West 338 389 24,700 2,213 Climbing Houston Center
Fri 12:01:23 AM 30.0050 -96.5403 306° West 312 359 27,500 2,262 Climbing Houston Center
Fri 12:02:24 AM 30.0561 -96.6086 311° West 287 330 29,300 1,279 Climbing Houston Center
Fri 12:03:25 AM 30.1022 -96.6853 305° West 291 335 30,100 689 Climbing Houston Center
Fri 12:04:26 AM 30.1492 -96.7669 304° West 312 359 30,700 885 Climbing Houston Center
Fri 12:05:27 AM 30.2322 -96.8144 334° Northwest 362 417 31,900 1,279 Climbing Houston Center
Fri 12:06:28 AM 30.3306 -96.8144 360° North 352 405 33,300 984 Climbing Houston Center
Fri 12:07:29 AM 30.4258 -96.8222 356° North 342 394 33,900 541 Climbing Houston Center
Fri 12:08:30 AM 30.5408 -96.8400 352° North 354 407 34,400 689 Climbing Houston Center
Fri 12:09:31 AM 30.6400 -96.8544 353° North 357 411 35,300 885 Climbing Houston Center
Fri 12:10:32 AM 30.7389 -96.8686 353° North 356 410 36,200 1,033 Climbing Houston Center
Fri 12:11:33 AM 30.8361 -96.8833 353° North 352 405 37,400 992 Climbing Houston Center
Fri 12:12:33 AM 30.9311 -96.8986 352° North 345 397 38,200 694 Climbing Houston Center
Fri 12:13:34 AM 31.0294 -96.9131 353° North 353 406 38,800 590 Climbing Houston Center
Fri 12:14:35 AM 31.1275 -96.9283 352° North 353 406 39,400 590 Climbing Houston Center
Fri 12:15:36 AM 31.2247 -96.9442 352° North 350 403 40,000 295 Climbing Houston Center
Fri 12:16:37 AM 31.3256 -96.9606 352° North 360 414 40,000  Level Houston Center
Fri 12:17:38 AM 31.4322 -96.9764 353° North 377 434 40,000  Level Houston Center
Fri 12:18:39 AM 31.5403 -96.9936 352° North 387 445 40,000  Level Houston Center
Fri 12:19:40 AM 31.6525 -97.0108 353° North 399 459 40,000  Level Houston Center
Fri 12:20:41 AM 31.7656 -97.0283 353° North 404 465 40,000  Level Houston Center
Fri 12:21:42 AM 31.8803 -97.0467 352° North 411 473 40,000  Level Houston Center
Fri 12:22:42 AM 31.9958 -97.0653 352° North 413 475 40,000  Level Houston Center
Fri 12:23:43 AM 32.1114 -97.0844 352° North 415 478 40,000  Level Houston Center
Fri 12:24:44 AM 32.2283 -97.1003 353° North 417 480 40,000  Level Houston Center
Fri 12:25:49 AM 32.3611 -97.1256 351° North 410 472 40,000  Level Fort Worth Center
Fri 12:26:49 AM 32.4636 -97.1400 353° North 410 472 40,000  Level Fort Worth Center
Fri 12:27:50 AM 32.5908 -97.1619 352° North 410 472 40,000  Level Fort Worth Center
Fri 12:28:50 AM 32.6911 -97.1764 353° North 410 472 40,000  Level Fort Worth Center
Fri 12:29:49 AM 32.8164 -97.1958 353° North 410 472 40,000  Level Fort Worth Center
Fri 12:30:49 AM 32.9167 -97.2131 352° North 410 472 40,000  Level Fort Worth Center
Fri 12:31:49 AM 33.0400 -97.2325 352° North 410 472 40,000  Level Fort Worth Center
Fri 12:32:49 AM 33.1547 -97.2522 352° North 410 472 40,000  Level Fort Worth Center
Fri 12:33:49 AM 33.2653 -97.2694 353° North 410 472 40,000  Level Fort Worth Center
Fri 12:34:49 AM 33.3803 -97.2892 352° North 410 472 40,000  Level Fort Worth Center
Fri 12:35:49 AM 33.4889 -97.3089 351° North 405 466 40,000 -150 Level Fort Worth Center
Fri 12:36:49 AM 33.6014 -97.3261 353° North 410 472 39,700 -1,041 Descending Fort Worth Center
Fri 12:37:50 AM 33.7164 -97.3511 350° North 410 472 37,900 -1,650 Descending Fort Worth Center
Fri 12:38:49 AM 33.8353 -97.3683 353° North 415 478 36,400 -1,563 Descending Fort Worth Center
Fri 12:39:49 AM 33.9542 -97.3883 352° North 426 490 34,800 -1,900 Descending Fort Worth Center
Fri 12:40:49 AM 34.0772 -97.4086 352° North 438 504 32,600 -1,750 Descending Fort Worth Center
Fri 12:41:49 AM 34.1983 -97.4261 353° North 438 504 31,300 -1,250 Descending Fort Worth Center
Fri 12:42:49 AM 34.3111 -97.4461 352° North 425 489 30,100 -1,350 Descending Fort Worth Center
Fri 12:43:49 AM 34.4175 -97.4639 352° North 408 470 28,600 -1,700 Descending Fort Worth Center
Fri 12:44:49 AM 34.5217 -97.4792 353° North 387 445 26,700 -1,837 Descending Fort Worth Center
Fri 12:45:27 AM 34.5844 -97.4892 353° North 342 394 25,600 -1,770 Descending Fort Worth Center
Fri 12:45:50 AM 34.6156 -97.4967 349° North 364 419 24,900 -3,344 Descending Fort Worth Center
Fri 12:46:28 AM 34.6783 -97.5044 354° North 326 375 22,200 -4,000 Descending Fort Worth Center
Fri 12:47:29 AM 34.7722 -97.5222 351° North 346 398 18,300 -3,548 Descending Fort Worth Center
Fri 12:48:23 AM 34.8472 -97.5553 340° North 312 359 15,400 -3,235 Descending Fort Worth Center
Fri 12:49:24 AM 34.9242 -97.5983 335° Northwest 301 346 12,100 -3,322 Descending Fort Worth Center
Fri 12:50:24 AM 35.0014 -97.6392 337° Northwest 300 345 8,700 -2,926 Descending Fort Worth Center
Fri 12:51:25 AM 35.0700 -97.6850 331° Northwest 280 322 6,200 -1,279 Descending Fort Worth Center
Fri 12:52:26 AM 35.1347 -97.6825 North 217 250 6,100 -545 Descending Fort Worth Center
Fri 12:53:26 AM 35.1869 -97.6550 23° Northeast 212 244 5,100 -1,240 Descending Fort Worth Center
Fri 12:54:27 AM 35.2517 -97.6475 North 240 276 3,600 -1,041 Descending Fort Worth Center
Fri 12:55:27 AM 35.3206 -97.6503 358° North 212 244 3,000 -397 Descending Fort Worth Center
Fri 12:56:28 AM 35.3642 -97.6528 357° North 142 163 2,800 -246 Descending Fort Worth Center
Fri 12:57:29 AM 35.4061 -97.6506 North 139 160 2,500 -99 Descending Fort Worth Center
Fri 12:58:29 AM 35.4456 -97.6481 North 142 163 2,600 -198 Climbing Fort Worth Center
Fri 12:59:30 AM 35.4872 -97.6481 360° North 138 159 2,100 -496 Descending Fort Worth Center
Fri 01:00:30 AM 35.5122 -97.6481 360° North 90 104 1,600 -500 Descending Fort Worth Center

Login

Don't have an account? Register now (free) for customized features, flight alerts, and more!